Robinson Ranch, California
Current Conditions -  °F | °C
As of 1:53 PM on Sunday 23 Nov 2014 (Local Time) from KSNA Reporting Station
Few Clouds Few Clouds  
Wind Chill: 84°   Ceiling: Unl
Heat Index: 84°   Visibility: 10mi
Dew Point: -8°   Wind: 16mph
Humidity: 3%   Direction: 70°ENE
Pressure: 30.04"   Gusts: 23mph
Location:  33.6153°N, 117.532°W
Report Text: KSNA 232153Z 07014G20KT 10SM FEW280 29/M22 A3004 RMK AO2 PK WND 08027/2130 SLP172 T02891222
Loading
Personal Weather Stations






























Interactive Weather Map New forecast layout! Learn more

10-Day Weather Forecast

Advertisements
Track Severe Weather on mobile